sensor_id;sensor_type;location;lat;lon;timestamp;P1;durP1;ratioP1;P2;durP2;ratioP2
47523;SDS011;33253;42.144;25.884;2022-12-18T00:01:19;73.00;;;37.80;;
47523;SDS011;33253;42.144;25.884;2022-12-18T00:03:49;76.88;;;38.97;;
47523;SDS011;33253;42.144;25.884;2022-12-18T00:06:16;66.20;;;38.83;;
47523;SDS011;33253;42.144;25.884;2022-12-18T00:08:42;65.80;;;37.95;;
47523;SDS011;33253;42.144;25.884;2022-12-18T00:11:13;73.20;;;38.70;;
47523;SDS011;33253;42.144;25.884;2022-12-18T00:13:40;79.72;;;39.22;;
47523;SDS011;33253;42.144;25.884;2022-12-18T00:16:06;69.55;;;39.70;;
47523;SDS011;33253;42.144;25.884;2022-12-18T00:18:35;74.25;;;40.65;;
47523;SDS011;33253;42.144;25.884;2022-12-18T00:21:01;72.90;;;39.88;;
47523;SDS011;33253;42.144;25.884;2022-12-18T00:23:29;70.95;;;37.95;;
47523;SDS011;33253;42.144;25.884;2022-12-18T00:25:58;71.57;;;35.55;;
47523;SDS011;33253;42.144;25.884;2022-12-18T00:28:25;63.60;;;34.10;;
47523;SDS011;33253;42.144;25.884;2022-12-18T00:30:50;74.88;;;40.58;;
47523;SDS011;33253;42.144;25.884;2022-12-18T00:33:16;103.57;;;51.58;;
47523;SDS011;33253;42.144;25.884;2022-12-18T00:35:42;74.63;;;39.58;;
47523;SDS011;33253;42.144;25.884;2022-12-18T00:38:08;83.70;;;40.72;;
47523;SDS011;33253;42.144;25.884;2022-12-18T00:40:33;82.50;;;40.88;;
47523;SDS011;33253;42.144;25.884;2022-12-18T00:42:59;77.70;;;39.90;;
47523;SDS011;33253;42.144;25.884;2022-12-18T00:45:25;77.03;;;40.00;;
47523;SDS011;33253;42.144;25.884;2022-12-18T00:47:52;83.90;;;40.78;;
47523;SDS011;33253;42.144;25.884;2022-12-18T00:50:18;83.80;;;39.65;;
47523;SDS011;33253;42.144;25.884;2022-12-18T00:52:43;74.30;;;38.35;;
47523;SDS011;33253;42.144;25.884;2022-12-18T00:55:09;80.82;;;38.65;;
47523;SDS011;33253;42.144;25.884;2022-12-18T00:57:35;73.68;;;37.70;;
47523;SDS011;33253;42.144;25.884;2022-12-18T01:00:01;74.40;;;37.65;;
47523;SDS011;33253;42.144;25.884;2022-12-18T01:02:28;75.15;;;38.05;;
47523;SDS011;33253;42.144;25.884;2022-12-18T01:04:53;70.80;;;38.47;;
47523;SDS011;33253;42.144;25.884;2022-12-18T01:07:19;65.38;;;36.40;;
47523;SDS011;33253;42.144;25.884;2022-12-18T01:09:44;70.00;;;38.30;;
47523;SDS011;33253;42.144;25.884;2022-12-18T01:12:09;60.92;;;36.17;;
47523;SDS011;33253;42.144;25.884;2022-12-18T01:14:35;57.38;;;34.20;;
47523;SDS011;33253;42.144;25.884;2022-12-18T01:17:02;60.50;;;34.63;;
47523;SDS011;33253;42.144;25.884;2022-12-18T01:19:28;57.30;;;34.60;;
47523;SDS011;33253;42.144;25.884;2022-12-18T01:21:54;55.83;;;33.50;;
47523;SDS011;33253;42.144;25.884;2022-12-18T01:24:19;58.63;;;33.88;;
47523;SDS011;33253;42.144;25.884;2022-12-18T01:26:45;56.88;;;34.38;;
47523;SDS011;33253;42.144;25.884;2022-12-18T01:29:10;50.70;;;30.83;;
47523;SDS011;33253;42.144;25.884;2022-12-18T01:31:36;49.65;;;29.60;;
47523;SDS011;33253;42.144;25.884;2022-12-18T01:34:02;56.40;;;31.42;;
47523;SDS011;33253;42.144;25.884;2022-12-18T01:36:30;52.55;;;31.48;;
47523;SDS011;33253;42.144;25.884;2022-12-18T01:38:59;53.05;;;29.48;;
47523;SDS011;33253;42.144;25.884;2022-12-18T01:41:38;52.55;;;29.83;;
47523;SDS011;33253;42.144;25.884;2022-12-18T01:47:26;47.92;;;30.02;;
47523;SDS011;33253;42.144;25.884;2022-12-18T01:53:03;51.45;;;29.98;;
47523;SDS011;33253;42.144;25.884;2022-12-18T01:55:35;54.03;;;30.92;;
47523;SDS011;33253;42.144;25.884;2022-12-18T01:58:05;52.92;;;31.02;;
47523;SDS011;33253;42.144;25.884;2022-12-18T02:00:31;48.45;;;29.38;;
47523;SDS011;33253;42.144;25.884;2022-12-18T02:02:56;51.00;;;32.13;;
47523;SDS011;33253;42.144;25.884;2022-12-18T02:05:27;54.85;;;30.77;;
47523;SDS011;33253;42.144;25.884;2022-12-18T02:10:38;48.88;;;30.55;;
47523;SDS011;33253;42.144;25.884;2022-12-18T02:16:01;46.30;;;28.45;;
47523;SDS011;33253;42.144;25.884;2022-12-18T02:18:41;49.75;;;30.85;;
47523;SDS011;33253;42.144;25.884;2022-12-18T02:23:47;48.65;;;29.30;;
47523;SDS011;33253;42.144;25.884;2022-12-18T02:26:28;47.42;;;29.90;;
47523;SDS011;33253;42.144;25.884;2022-12-18T02:29:01;50.17;;;29.52;;
47523;SDS011;33253;42.144;25.884;2022-12-18T02:31:31;43.95;;;29.15;;
47523;SDS011;33253;42.144;25.884;2022-12-18T02:34:04;43.88;;;28.90;;
47523;SDS011;33253;42.144;25.884;2022-12-18T02:36:32;45.10;;;27.13;;
47523;SDS011;33253;42.144;25.884;2022-12-18T02:39:01;41.47;;;26.08;;
47523;SDS011;33253;42.144;25.884;2022-12-18T02:41:27;38.38;;;26.02;;
47523;SDS011;33253;42.144;25.884;2022-12-18T02:43:56;42.13;;;26.42;;
47523;SDS011;33253;42.144;25.884;2022-12-18T02:46:25;43.88;;;25.98;;
47523;SDS011;33253;42.144;25.884;2022-12-18T03:00:33;46.05;;;26.13;;
47523;SDS011;33253;42.144;25.884;2022-12-18T03:03:11;37.40;;;24.65;;
47523;SDS011;33253;42.144;25.884;2022-12-18T03:05:59;35.55;;;24.02;;
47523;SDS011;33253;42.144;25.884;2022-12-18T03:08:30;33.00;;;22.08;;
47523;SDS011;33253;42.144;25.884;2022-12-18T03:16:10;34.60;;;23.02;;
47523;SDS011;33253;42.144;25.884;2022-12-18T03:18:42;32.85;;;22.15;;
47523;SDS011;33253;42.144;25.884;2022-12-18T03:21:17;38.80;;;23.45;;
47523;SDS011;33253;42.144;25.884;2022-12-18T03:23:48;42.17;;;25.15;;
47523;SDS011;33253;42.144;25.884;2022-12-18T03:26:17;42.00;;;25.63;;
47523;SDS011;33253;42.144;25.884;2022-12-18T03:28:56;38.28;;;23.70;;
47523;SDS011;33253;42.144;25.884;2022-12-18T03:31:29;36.22;;;24.02;;
47523;SDS011;33253;42.144;25.884;2022-12-18T03:34:04;34.25;;;23.73;;
47523;SDS011;33253;42.144;25.884;2022-12-18T03:36:33;40.40;;;24.65;;
47523;SDS011;33253;42.144;25.884;2022-12-18T03:38:59;38.70;;;24.55;;
47523;SDS011;33253;42.144;25.884;2022-12-18T03:41:28;35.83;;;23.77;;
47523;SDS011;33253;42.144;25.884;2022-12-18T03:46:47;38.88;;;23.60;;
47523;SDS011;33253;42.144;25.884;2022-12-18T03:49:18;38.67;;;24.60;;
47523;SDS011;33253;42.144;25.884;2022-12-18T03:51:54;41.03;;;25.48;;
47523;SDS011;33253;42.144;25.884;2022-12-18T03:54:27;36.70;;;24.30;;
47523;SDS011;33253;42.144;25.884;2022-12-18T03:56:59;38.05;;;23.92;;
47523;SDS011;33253;42.144;25.884;2022-12-18T03:59:30;37.58;;;24.15;;
47523;SDS011;33253;42.144;25.884;2022-12-18T04:01:57;34.20;;;23.08;;
47523;SDS011;33253;42.144;25.884;2022-12-18T04:04:25;33.13;;;22.45;;
47523;SDS011;33253;42.144;25.884;2022-12-18T04:06:53;35.45;;;22.02;;
47523;SDS011;33253;42.144;25.884;2022-12-18T04:09:20;33.55;;;23.27;;
47523;SDS011;33253;42.144;25.884;2022-12-18T04:11:46;31.85;;;21.80;;
47523;SDS011;33253;42.144;25.884;2022-12-18T04:14:12;30.40;;;21.83;;
47523;SDS011;33253;42.144;25.884;2022-12-18T04:16:38;32.38;;;22.45;;
47523;SDS011;33253;42.144;25.884;2022-12-18T04:19:03;40.72;;;22.83;;
47523;SDS011;33253;42.144;25.884;2022-12-18T04:21:29;37.53;;;22.23;;
47523;SDS011;33253;42.144;25.884;2022-12-18T04:23:55;31.05;;;21.85;;
47523;SDS011;33253;42.144;25.884;2022-12-18T04:26:20;32.33;;;21.05;;
47523;SDS011;33253;42.144;25.884;2022-12-18T04:28:46;33.35;;;22.08;;
47523;SDS011;33253;42.144;25.884;2022-12-18T04:31:12;32.83;;;21.48;;
47523;SDS011;33253;42.144;25.884;2022-12-18T04:33:38;31.35;;;21.88;;
47523;SDS011;33253;42.144;25.884;2022-12-18T04:36:03;34.72;;;22.98;;
47523;SDS011;33253;42.144;25.884;2022-12-18T04:38:29;34.92;;;24.35;;
47523;SDS011;33253;42.144;25.884;2022-12-18T04:40:54;32.30;;;22.98;;
47523;SDS011;33253;42.144;25.884;2022-12-18T04:43:20;30.27;;;22.48;;
47523;SDS011;33253;42.144;25.884;2022-12-18T04:45:45;35.70;;;26.23;;
47523;SDS011;33253;42.144;25.884;2022-12-18T04:48:11;39.00;;;25.30;;
47523;SDS011;33253;42.144;25.884;2022-12-18T04:50:36;36.15;;;25.95;;
47523;SDS011;33253;42.144;25.884;2022-12-18T04:53:02;38.50;;;28.50;;
47523;SDS011;33253;42.144;25.884;2022-12-18T04:55:27;45.30;;;27.73;;
47523;SDS011;33253;42.144;25.884;2022-12-18T04:57:53;42.03;;;29.83;;
47523;SDS011;33253;42.144;25.884;2022-12-18T05:00:19;40.80;;;27.95;;
47523;SDS011;33253;42.144;25.884;2022-12-18T05:02:44;37.97;;;26.25;;
47523;SDS011;33253;42.144;25.884;2022-12-18T05:05:10;34.05;;;24.08;;
47523;SDS011;33253;42.144;25.884;2022-12-18T05:07:36;30.48;;;22.77;;
47523;SDS011;33253;42.144;25.884;2022-12-18T05:10:01;32.45;;;22.65;;
47523;SDS011;33253;42.144;25.884;2022-12-18T05:12:27;28.67;;;20.85;;
47523;SDS011;33253;42.144;25.884;2022-12-18T05:14:52;34.33;;;23.35;;
47523;SDS011;33253;42.144;25.884;2022-12-18T05:17:18;33.13;;;22.38;;
47523;SDS011;33253;42.144;25.884;2022-12-18T05:19:43;30.63;;;22.05;;
47523;SDS011;33253;42.144;25.884;2022-12-18T05:22:09;35.05;;;22.25;;
47523;SDS011;33253;42.144;25.884;2022-12-18T05:24:35;29.58;;;21.20;;
47523;SDS011;33253;42.144;25.884;2022-12-18T05:27:00;29.80;;;20.05;;
47523;SDS011;33253;42.144;25.884;2022-12-18T05:29:26;28.35;;;19.02;;
47523;SDS011;33253;42.144;25.884;2022-12-18T05:31:51;28.70;;;20.10;;
47523;SDS011;33253;42.144;25.884;2022-12-18T05:34:16;29.73;;;19.67;;
47523;SDS011;33253;42.144;25.884;2022-12-18T05:36:42;28.70;;;18.70;;
47523;SDS011;33253;42.144;25.884;2022-12-18T05:39:07;27.20;;;18.02;;
47523;SDS011;33253;42.144;25.884;2022-12-18T05:41:33;23.65;;;18.33;;
47523;SDS011;33253;42.144;25.884;2022-12-18T05:44:01;27.40;;;18.67;;
47523;SDS011;33253;42.144;25.884;2022-12-18T05:46:26;27.40;;;18.77;;
47523;SDS011;33253;42.144;25.884;2022-12-18T05:48:52;30.52;;;18.58;;
47523;SDS011;33253;42.144;25.884;2022-12-18T05:51:19;30.80;;;20.45;;
47523;SDS011;33253;42.144;25.884;2022-12-18T05:53:46;29.88;;;20.52;;
47523;SDS011;33253;42.144;25.884;2022-12-18T05:56:14;29.58;;;20.48;;
47523;SDS011;33253;42.144;25.884;2022-12-18T05:58:42;30.70;;;20.65;;
47523;SDS011;33253;42.144;25.884;2022-12-18T06:01:12;32.85;;;19.23;;
47523;SDS011;33253;42.144;25.884;2022-12-18T06:03:42;28.10;;;20.23;;
47523;SDS011;33253;42.144;25.884;2022-12-18T06:06:15;33.47;;;21.85;;
47523;SDS011;33253;42.144;25.884;2022-12-18T06:08:41;27.95;;;19.85;;
47523;SDS011;33253;42.144;25.884;2022-12-18T06:11:07;29.80;;;19.90;;
47523;SDS011;33253;42.144;25.884;2022-12-18T06:13:32;27.67;;;20.48;;
47523;SDS011;33253;42.144;25.884;2022-12-18T06:15:58;24.58;;;18.20;;
47523;SDS011;33253;42.144;25.884;2022-12-18T06:18:23;27.83;;;18.85;;
47523;SDS011;33253;42.144;25.884;2022-12-18T06:20:58;26.67;;;18.98;;
47523;SDS011;33253;42.144;25.884;2022-12-18T06:23:24;25.23;;;18.00;;
47523;SDS011;33253;42.144;25.884;2022-12-18T06:25:49;28.55;;;19.15;;
47523;SDS011;33253;42.144;25.884;2022-12-18T06:28:15;24.55;;;18.60;;
47523;SDS011;33253;42.144;25.884;2022-12-18T06:30:43;27.48;;;18.83;;
47523;SDS011;33253;42.144;25.884;2022-12-18T06:33:09;26.25;;;18.77;;
47523;SDS011;33253;42.144;25.884;2022-12-18T06:35:34;25.52;;;18.90;;
47523;SDS011;33253;42.144;25.884;2022-12-18T06:38:00;28.23;;;19.67;;
47523;SDS011;33253;42.144;25.884;2022-12-18T06:40:26;25.00;;;18.70;;
47523;SDS011;33253;42.144;25.884;2022-12-18T06:42:52;28.95;;;20.35;;
47523;SDS011;33253;42.144;25.884;2022-12-18T06:45:18;27.27;;;19.80;;
47523;SDS011;33253;42.144;25.884;2022-12-18T06:47:43;27.17;;;19.98;;
47523;SDS011;33253;42.144;25.884;2022-12-18T06:50:09;26.48;;;18.98;;
47523;SDS011;33253;42.144;25.884;2022-12-18T06:52:34;24.10;;;18.05;;
47523;SDS011;33253;42.144;25.884;2022-12-18T06:55:00;26.08;;;19.73;;
47523;SDS011;33253;42.144;25.884;2022-12-18T06:57:25;25.98;;;19.30;;
47523;SDS011;33253;42.144;25.884;2022-12-18T06:59:51;24.83;;;18.00;;
47523;SDS011;33253;42.144;25.884;2022-12-18T07:02:16;26.90;;;17.67;;
47523;SDS011;33253;42.144;25.884;2022-12-18T07:04:42;27.20;;;20.33;;
47523;SDS011;33253;42.144;25.884;2022-12-18T07:07:07;26.27;;;18.85;;
47523;SDS011;33253;42.144;25.884;2022-12-18T07:09:33;27.25;;;19.45;;
47523;SDS011;33253;42.144;25.884;2022-12-18T07:11:59;24.98;;;17.95;;
47523;SDS011;33253;42.144;25.884;2022-12-18T07:14:25;30.73;;;20.40;;
47523;SDS011;33253;42.144;25.884;2022-12-18T07:16:50;28.13;;;19.65;;
47523;SDS011;33253;42.144;25.884;2022-12-18T07:19:16;29.60;;;19.85;;
47523;SDS011;33253;42.144;25.884;2022-12-18T07:21:41;28.77;;;20.58;;
47523;SDS011;33253;42.144;25.884;2022-12-18T07:24:07;26.20;;;19.58;;
47523;SDS011;33253;42.144;25.884;2022-12-18T07:26:32;24.98;;;19.50;;
47523;SDS011;33253;42.144;25.884;2022-12-18T07:28:58;28.42;;;19.17;;
47523;SDS011;33253;42.144;25.884;2022-12-18T07:31:24;30.33;;;18.83;;
47523;SDS011;33253;42.144;25.884;2022-12-18T07:33:51;32.58;;;18.83;;
47523;SDS011;33253;42.144;25.884;2022-12-18T07:36:17;31.75;;;19.42;;
47523;SDS011;33253;42.144;25.884;2022-12-18T07:38:42;30.55;;;18.63;;
47523;SDS011;33253;42.144;25.884;2022-12-18T07:41:12;40.50;;;19.08;;
47523;SDS011;33253;42.144;25.884;2022-12-18T07:43:38;38.08;;;18.23;;
47523;SDS011;33253;42.144;25.884;2022-12-18T07:46:05;31.55;;;16.05;;
47523;SDS011;33253;42.144;25.884;2022-12-18T07:48:32;25.95;;;14.65;;
47523;SDS011;33253;42.144;25.884;2022-12-18T07:50:58;23.33;;;12.18;;
47523;SDS011;33253;42.144;25.884;2022-12-18T07:53:24;17.58;;;10.02;;
47523;SDS011;33253;42.144;25.884;2022-12-18T07:55:54;14.60;;;9.63;;
47523;SDS011;33253;42.144;25.884;2022-12-18T07:58:23;16.25;;;9.32;;
47523;SDS011;33253;42.144;25.884;2022-12-18T08:00:48;15.85;;;8.98;;
47523;SDS011;33253;42.144;25.884;2022-12-18T08:03:14;15.25;;;8.45;;
47523;SDS011;33253;42.144;25.884;2022-12-18T08:05:39;10.32;;;6.75;;
47523;SDS011;33253;42.144;25.884;2022-12-18T08:08:05;10.77;;;5.45;;
47523;SDS011;33253;42.144;25.884;2022-12-18T08:10:30;11.73;;;6.03;;
47523;SDS011;33253;42.144;25.884;2022-12-18T08:12:56;9.30;;;5.28;;
47523;SDS011;33253;42.144;25.884;2022-12-18T08:15:21;5.88;;;4.20;;
47523;SDS011;33253;42.144;25.884;2022-12-18T08:17:47;6.55;;;3.92;;
47523;SDS011;33253;42.144;25.884;2022-12-18T08:20:12;7.57;;;4.10;;
47523;SDS011;33253;42.144;25.884;2022-12-18T08:22:40;5.75;;;4.00;;
47523;SDS011;33253;42.144;25.884;2022-12-18T08:25:08;7.60;;;4.07;;
47523;SDS011;33253;42.144;25.884;2022-12-18T08:27:33;7.32;;;3.70;;
47523;SDS011;33253;42.144;25.884;2022-12-18T08:29:59;5.95;;;4.28;;
47523;SDS011;33253;42.144;25.884;2022-12-18T08:32:25;6.70;;;4.35;;
47523;SDS011;33253;42.144;25.884;2022-12-18T08:34:51;6.55;;;4.45;;
47523;SDS011;33253;42.144;25.884;2022-12-18T08:37:17;6.97;;;4.60;;
47523;SDS011;33253;42.144;25.884;2022-12-18T08:39:42;6.90;;;4.28;;
47523;SDS011;33253;42.144;25.884;2022-12-18T08:42:08;6.00;;;4.40;;
47523;SDS011;33253;42.144;25.884;2022-12-18T08:44:52;8.10;;;4.18;;
47523;SDS011;33253;42.144;25.884;2022-12-18T08:47:17;6.57;;;4.60;;
47523;SDS011;33253;42.144;25.884;2022-12-18T08:49:43;8.20;;;4.82;;
47523;SDS011;33253;42.144;25.884;2022-12-18T08:52:08;9.20;;;5.45;;
47523;SDS011;33253;42.144;25.884;2022-12-18T08:54:34;8.55;;;6.00;;
47523;SDS011;33253;42.144;25.884;2022-12-18T08:56:59;10.15;;;6.15;;
47523;SDS011;33253;42.144;25.884;2022-12-18T08:59:24;9.02;;;6.25;;
47523;SDS011;33253;42.144;25.884;2022-12-18T09:01:53;10.68;;;7.40;;
47523;SDS011;33253;42.144;25.884;2022-12-18T09:04:18;10.02;;;6.65;;
47523;SDS011;33253;42.144;25.884;2022-12-18T09:06:44;10.15;;;7.57;;
47523;SDS011;33253;42.144;25.884;2022-12-18T09:09:09;10.10;;;7.63;;
47523;SDS011;33253;42.144;25.884;2022-12-18T09:11:35;12.80;;;8.38;;
47523;SDS011;33253;42.144;25.884;2022-12-18T09:14:00;10.48;;;7.38;;
47523;SDS011;33253;42.144;25.884;2022-12-18T09:16:27;12.90;;;8.55;;
47523;SDS011;33253;42.144;25.884;2022-12-18T09:18:56;12.48;;;9.07;;
47523;SDS011;33253;42.144;25.884;2022-12-18T09:21:26;16.85;;;9.25;;
47523;SDS011;33253;42.144;25.884;2022-12-18T09:23:54;13.45;;;9.00;;
47523;SDS011;33253;42.144;25.884;2022-12-18T09:26:21;14.60;;;9.88;;
47523;SDS011;33253;42.144;25.884;2022-12-18T09:28:47;12.40;;;9.02;;
47523;SDS011;33253;42.144;25.884;2022-12-18T09:31:14;16.65;;;8.80;;
47523;SDS011;33253;42.144;25.884;2022-12-18T09:33:40;12.10;;;9.10;;
47523;SDS011;33253;42.144;25.884;2022-12-18T09:36:06;12.18;;;9.25;;
47523;SDS011;33253;42.144;25.884;2022-12-18T09:38:34;10.35;;;8.00;;
47523;SDS011;33253;42.144;25.884;2022-12-18T09:41:01;13.77;;;9.60;;
47523;SDS011;33253;42.144;25.884;2022-12-18T09:43:41;15.32;;;9.65;;
47523;SDS011;33253;42.144;25.884;2022-12-18T09:46:10;12.95;;;9.75;;
47523;SDS011;33253;42.144;25.884;2022-12-18T09:48:45;19.85;;;12.10;;
47523;SDS011;33253;42.144;25.884;2022-12-18T09:51:15;14.48;;;9.80;;
47523;SDS011;33253;42.144;25.884;2022-12-18T09:54:03;13.45;;;10.20;;
47523;SDS011;33253;42.144;25.884;2022-12-18T09:56:37;14.18;;;10.48;;
47523;SDS011;33253;42.144;25.884;2022-12-18T09:59:06;14.30;;;9.70;;
47523;SDS011;33253;42.144;25.884;2022-12-18T10:01:47;13.65;;;9.73;;
47523;SDS011;33253;42.144;25.884;2022-12-18T10:04:13;13.05;;;9.50;;
47523;SDS011;33253;42.144;25.884;2022-12-18T10:06:40;12.13;;;9.10;;
47523;SDS011;33253;42.144;25.884;2022-12-18T10:14:27;11.25;;;7.63;;
47523;SDS011;33253;42.144;25.884;2022-12-18T10:27:52;11.80;;;8.27;;
47523;SDS011;33253;42.144;25.884;2022-12-18T10:30:21;10.57;;;8.00;;
47523;SDS011;33253;42.144;25.884;2022-12-18T10:32:48;12.02;;;8.10;;
47523;SDS011;33253;42.144;25.884;2022-12-18T10:35:19;12.55;;;8.48;;
47523;SDS011;33253;42.144;25.884;2022-12-18T10:43:43;12.07;;;8.10;;
47523;SDS011;33253;42.144;25.884;2022-12-18T10:51:31;12.88;;;8.10;;
47523;SDS011;33253;42.144;25.884;2022-12-18T10:54:00;11.27;;;8.40;;
47523;SDS011;33253;42.144;25.884;2022-12-18T10:56:29;25.85;;;12.65;;
47523;SDS011;33253;42.144;25.884;2022-12-18T10:59:01;15.77;;;9.27;;
47523;SDS011;33253;42.144;25.884;2022-12-18T11:01:31;13.15;;;9.20;;
47523;SDS011;33253;42.144;25.884;2022-12-18T11:04:16;14.30;;;9.45;;
47523;SDS011;33253;42.144;25.884;2022-12-18T11:06:56;14.50;;;10.30;;
47523;SDS011;33253;42.144;25.884;2022-12-18T11:09:35;20.52;;;12.57;;
47523;SDS011;33253;42.144;25.884;2022-12-18T11:12:24;13.27;;;10.20;;
47523;SDS011;33253;42.144;25.884;2022-12-18T11:14:49;12.48;;;7.97;;
47523;SDS011;33253;42.144;25.884;2022-12-18T11:17:20;11.73;;;8.07;;
47523;SDS011;33253;42.144;25.884;2022-12-18T11:19:52;11.68;;;7.95;;
47523;SDS011;33253;42.144;25.884;2022-12-18T11:22:26;10.93;;;7.50;;
47523;SDS011;33253;42.144;25.884;2022-12-18T11:27:54;11.32;;;7.53;;
47523;SDS011;33253;42.144;25.884;2022-12-18T11:30:29;11.27;;;8.48;;
47523;SDS011;33253;42.144;25.884;2022-12-18T11:38:18;11.60;;;7.85;;
47523;SDS011;33253;42.144;25.884;2022-12-18T11:40:47;13.95;;;8.82;;
47523;SDS011;33253;42.144;25.884;2022-12-18T11:43:42;12.00;;;8.45;;
47523;SDS011;33253;42.144;25.884;2022-12-18T11:46:17;11.70;;;8.45;;
47523;SDS011;33253;42.144;25.884;2022-12-18T11:48:52;12.82;;;7.95;;
47523;SDS011;33253;42.144;25.884;2022-12-18T11:51:35;12.23;;;9.32;;
47523;SDS011;33253;42.144;25.884;2022-12-18T11:54:12;12.50;;;8.95;;
47523;SDS011;33253;42.144;25.884;2022-12-18T11:56:43;16.15;;;10.93;;
47523;SDS011;33253;42.144;25.884;2022-12-18T12:19:34;11.30;;;8.18;;
47523;SDS011;33253;42.144;25.884;2022-12-18T12:30:29;30.65;;;11.73;;
47523;SDS011;33253;42.144;25.884;2022-12-18T12:35:52;18.92;;;9.40;;
47523;SDS011;33253;42.144;25.884;2022-12-18T12:40:59;12.85;;;8.55;;
47523;SDS011;33253;42.144;25.884;2022-12-18T12:46:10;13.27;;;9.32;;
47523;SDS011;33253;42.144;25.884;2022-12-18T12:48:42;13.98;;;9.32;;
47523;SDS011;33253;42.144;25.884;2022-12-18T12:51:34;12.95;;;9.45;;
47523;SDS011;33253;42.144;25.884;2022-12-18T12:57:03;12.70;;;9.43;;
47523;SDS011;33253;42.144;25.884;2022-12-18T12:59:52;15.35;;;9.40;;
47523;SDS011;33253;42.144;25.884;2022-12-18T13:02:30;20.52;;;10.85;;
47523;SDS011;33253;42.144;25.884;2022-12-18T13:07:56;16.50;;;10.35;;
47523;SDS011;33253;42.144;25.884;2022-12-18T13:12:56;20.80;;;10.02;;
47523;SDS011;33253;42.144;25.884;2022-12-18T13:18:11;13.13;;;8.82;;
47523;SDS011;33253;42.144;25.884;2022-12-18T13:20:42;15.82;;;9.60;;
47523;SDS011;33253;42.144;25.884;2022-12-18T13:25:56;16.50;;;11.00;;
47523;SDS011;33253;42.144;25.884;2022-12-18T13:31:11;13.43;;;9.45;;
47523;SDS011;33253;42.144;25.884;2022-12-18T13:39:56;14.20;;;9.75;;
47523;SDS011;33253;42.144;25.884;2022-12-18T13:48:27;15.02;;;10.40;;
47523;SDS011;33253;42.144;25.884;2022-12-18T13:53:28;14.73;;;10.45;;
47523;SDS011;33253;42.144;25.884;2022-12-18T13:55:58;15.25;;;10.30;;
47523;SDS011;33253;42.144;25.884;2022-12-18T13:58:24;14.32;;;10.40;;
47523;SDS011;33253;42.144;25.884;2022-12-18T14:00:49;14.75;;;9.65;;
47523;SDS011;33253;42.144;25.884;2022-12-18T14:03:18;15.32;;;10.25;;
47523;SDS011;33253;42.144;25.884;2022-12-18T14:05:46;15.13;;;10.13;;
47523;SDS011;33253;42.144;25.884;2022-12-18T14:08:19;15.15;;;9.57;;
47523;SDS011;33253;42.144;25.884;2022-12-18T14:10:46;16.38;;;12.82;;
47523;SDS011;33253;42.144;25.884;2022-12-18T14:13:23;14.35;;;9.63;;
47523;SDS011;33253;42.144;25.884;2022-12-18T14:15:52;19.55;;;11.70;;
47523;SDS011;33253;42.144;25.884;2022-12-18T14:20:50;15.43;;;10.85;;
47523;SDS011;33253;42.144;25.884;2022-12-18T14:25:59;15.63;;;10.98;;
47523;SDS011;33253;42.144;25.884;2022-12-18T14:28:27;18.98;;;11.05;;
47523;SDS011;33253;42.144;25.884;2022-12-18T14:30:53;15.32;;;10.80;;
47523;SDS011;33253;42.144;25.884;2022-12-18T14:35:54;16.90;;;12.05;;
47523;SDS011;33253;42.144;25.884;2022-12-18T14:38:23;15.18;;;10.70;;
47523;SDS011;33253;42.144;25.884;2022-12-18T14:40:52;16.40;;;11.73;;
47523;SDS011;33253;42.144;25.884;2022-12-18T14:43:20;12.85;;;9.52;;
47523;SDS011;33253;42.144;25.884;2022-12-18T14:45:46;16.27;;;10.85;;
47523;SDS011;33253;42.144;25.884;2022-12-18T14:48:15;19.55;;;12.90;;
47523;SDS011;33253;42.144;25.884;2022-12-18T14:50:45;19.98;;;12.15;;
47523;SDS011;33253;42.144;25.884;2022-12-18T14:53:25;19.40;;;11.55;;
47523;SDS011;33253;42.144;25.884;2022-12-18T14:55:58;21.30;;;15.50;;
47523;SDS011;33253;42.144;25.884;2022-12-18T14:58:23;17.98;;;13.52;;
47523;SDS011;33253;42.144;25.884;2022-12-18T15:00:49;18.95;;;12.27;;
47523;SDS011;33253;42.144;25.884;2022-12-18T15:03:18;18.50;;;12.95;;
47523;SDS011;33253;42.144;25.884;2022-12-18T15:05:46;18.00;;;11.38;;
47523;SDS011;33253;42.144;25.884;2022-12-18T15:08:34;18.02;;;12.02;;
47523;SDS011;33253;42.144;25.884;2022-12-18T15:11:01;16.83;;;11.85;;
47523;SDS011;33253;42.144;25.884;2022-12-18T15:13:27;17.63;;;10.57;;
47523;SDS011;33253;42.144;25.884;2022-12-18T15:15:53;18.17;;;13.85;;
47523;SDS011;33253;42.144;25.884;2022-12-18T15:18:32;18.38;;;12.38;;
47523;SDS011;33253;42.144;25.884;2022-12-18T15:21:08;16.02;;;10.30;;
47523;SDS011;33253;42.144;25.884;2022-12-18T15:23:36;16.65;;;11.27;;
47523;SDS011;33253;42.144;25.884;2022-12-18T15:26:03;16.05;;;10.30;;
47523;SDS011;33253;42.144;25.884;2022-12-18T15:28:34;20.45;;;11.13;;
47523;SDS011;33253;42.144;25.884;2022-12-18T15:31:06;15.90;;;10.98;;
47523;SDS011;33253;42.144;25.884;2022-12-18T15:33:33;40.85;;;36.65;;
47523;SDS011;33253;42.144;25.884;2022-12-18T15:36:02;15.57;;;11.05;;
47523;SDS011;33253;42.144;25.884;2022-12-18T15:38:29;16.55;;;10.60;;
47523;SDS011;33253;42.144;25.884;2022-12-18T15:40:56;15.00;;;10.05;;
47523;SDS011;33253;42.144;25.884;2022-12-18T15:43:22;15.57;;;11.02;;
47523;SDS011;33253;42.144;25.884;2022-12-18T15:48:47;16.13;;;11.45;;
47523;SDS011;33253;42.144;25.884;2022-12-18T15:51:21;18.05;;;10.65;;
47523;SDS011;33253;42.144;25.884;2022-12-18T15:53:50;14.75;;;8.63;;
47523;SDS011;33253;42.144;25.884;2022-12-18T15:56:18;17.65;;;10.50;;
47523;SDS011;33253;42.144;25.884;2022-12-18T15:59:02;16.27;;;10.48;;
47523;SDS011;33253;42.144;25.884;2022-12-18T16:01:30;17.50;;;11.05;;
47523;SDS011;33253;42.144;25.884;2022-12-18T16:03:56;18.75;;;11.40;;
47523;SDS011;33253;42.144;25.884;2022-12-18T16:06:22;17.60;;;12.00;;
47523;SDS011;33253;42.144;25.884;2022-12-18T16:08:48;20.98;;;13.63;;
47523;SDS011;33253;42.144;25.884;2022-12-18T16:16:39;21.38;;;13.38;;
47523;SDS011;33253;42.144;25.884;2022-12-18T16:19:04;19.35;;;13.80;;
47523;SDS011;33253;42.144;25.884;2022-12-18T16:21:30;24.35;;;17.30;;
47523;SDS011;33253;42.144;25.884;2022-12-18T16:23:55;23.27;;;15.38;;
47523;SDS011;33253;42.144;25.884;2022-12-18T16:26:20;20.50;;;14.57;;
47523;SDS011;33253;42.144;25.884;2022-12-18T16:28:46;17.95;;;11.73;;
47523;SDS011;33253;42.144;25.884;2022-12-18T16:31:11;18.88;;;11.13;;
47523;SDS011;33253;42.144;25.884;2022-12-18T16:33:37;17.10;;;11.82;;
47523;SDS011;33253;42.144;25.884;2022-12-18T16:36:02;17.95;;;11.35;;
47523;SDS011;33253;42.144;25.884;2022-12-18T16:38:28;16.58;;;11.00;;
47523;SDS011;33253;42.144;25.884;2022-12-18T16:40:54;21.38;;;12.40;;
47523;SDS011;33253;42.144;25.884;2022-12-18T16:43:38;19.48;;;12.35;;
47523;SDS011;33253;42.144;25.884;2022-12-18T16:46:04;19.75;;;13.07;;
47523;SDS011;33253;42.144;25.884;2022-12-18T16:48:29;21.25;;;14.07;;
47523;SDS011;33253;42.144;25.884;2022-12-18T16:51:02;19.63;;;12.65;;
47523;SDS011;33253;42.144;25.884;2022-12-18T16:53:29;18.38;;;12.27;;
47523;SDS011;33253;42.144;25.884;2022-12-18T16:55:56;19.83;;;12.10;;